createdAt,value
2019-05-23T00:01:34.445Z,16.00
2019-05-23T00:04:13.464Z,15.90
2019-05-23T00:06:48.188Z,15.90
2019-05-23T00:09:20.583Z,15.90
2019-05-23T00:12:06.388Z,15.80
2019-05-23T00:14:44.279Z,15.80
2019-05-23T00:17:20.782Z,15.70
2019-05-23T00:19:53.102Z,15.60
2019-05-23T00:22:29.213Z,15.60
2019-05-23T00:25:03.087Z,15.50
2019-05-23T00:27:37.908Z,15.50
2019-05-23T00:30:13.323Z,15.40
2019-05-23T00:32:47.448Z,15.40
2019-05-23T00:35:19.560Z,15.30
2019-05-23T00:37:53.091Z,15.30
2019-05-23T00:40:26.309Z,15.20
2019-05-23T00:43:02.624Z,15.20
2019-05-23T00:45:36.473Z,15.20
2019-05-23T00:48:09.622Z,15.10
2019-05-23T00:50:41.565Z,15.10
2019-05-23T00:53:14.505Z,15.00
2019-05-23T00:55:46.984Z,14.90
2019-05-23T00:58:19.617Z,14.90
2019-05-23T01:00:55.255Z,14.90
2019-05-23T01:03:31.004Z,14.80
2019-05-23T01:06:03.193Z,14.80
2019-05-23T01:08:35.305Z,14.80
2019-05-23T01:11:09.311Z,14.70
2019-05-23T01:13:41.319Z,14.70
2019-05-23T01:16:13.848Z,14.60
2019-05-23T01:18:46.138Z,14.60
2019-05-23T01:21:29.074Z,14.60
2019-05-23T01:24:06.108Z,14.50
2019-05-23T01:26:37.857Z,14.50
2019-05-23T01:29:10.017Z,14.50
2019-05-23T01:31:43.910Z,14.50
2019-05-23T01:34:15.832Z,14.40
2019-05-23T01:36:49.728Z,14.40
2019-05-23T01:39:21.502Z,14.30
2019-05-23T01:41:53.845Z,14.30
2019-05-23T01:44:26.444Z,14.30
2019-05-23T01:46:58.810Z,14.20
2019-05-23T01:49:32.475Z,14.20
2019-05-23T01:52:05.196Z,14.20
2019-05-23T01:54:39.021Z,14.10
2019-05-23T01:57:14.886Z,14.10
2019-05-23T01:59:47.031Z,14.10
2019-05-23T02:02:23.016Z,14.00
2019-05-23T02:04:56.344Z,14.00
2019-05-23T02:07:30.272Z,13.90
2019-05-23T02:10:02.382Z,13.90
2019-05-23T02:12:35.293Z,13.90
2019-05-23T02:15:11.909Z,13.90
2019-05-23T02:17:44.021Z,13.90
2019-05-23T02:20:20.245Z,13.80
2019-05-23T02:22:53.003Z,13.80
2019-05-23T02:25:26.486Z,13.80
2019-05-23T02:27:58.510Z,13.70
2019-05-23T02:30:35.349Z,13.70
2019-05-23T02:33:06.109Z,13.70
2019-05-23T02:35:39.272Z,13.70
2019-05-23T02:38:49.502Z,13.70
2019-05-23T02:41:36.593Z,13.60
2019-05-23T02:44:12.733Z,13.60
2019-05-23T02:47:00.332Z,13.60
2019-05-23T02:49:33.627Z,13.60
2019-05-23T02:52:39.072Z,13.50
2019-05-23T02:55:25.641Z,13.50
2019-05-23T02:58:09.183Z,13.40
2019-05-23T03:01:01.237Z,13.40
2019-05-23T03:03:37.074Z,13.30
2019-05-23T03:06:17.550Z,13.30
2019-05-23T03:08:52.457Z,13.20
2019-05-23T03:11:42.361Z,13.20
2019-05-23T03:14:16.668Z,13.10
2019-05-23T03:16:53.320Z,13.10
2019-05-23T03:19:36.982Z,13.10
2019-05-23T03:22:44.937Z,13.10
2019-05-23T03:26:19.833Z,13.10
2019-05-23T03:28:52.522Z,13.00
2019-05-23T03:31:39.909Z,13.00
2019-05-23T03:34:12.716Z,13.10
2019-05-23T03:36:45.651Z,13.00
2019-05-23T03:39:18.011Z,13.00
2019-05-23T03:41:49.995Z,13.00
2019-05-23T03:44:22.175Z,13.00
2019-05-23T03:46:55.540Z,13.00
2019-05-23T03:49:30.464Z,13.00
2019-05-23T03:52:03.437Z,13.00
2019-05-23T03:54:37.067Z,13.00
2019-05-23T03:57:11.867Z,13.00
2019-05-23T03:59:43.975Z,13.00
2019-05-23T04:02:18.417Z,13.00
2019-05-23T04:04:50.713Z,13.00
2019-05-23T04:07:23.061Z,13.00
2019-05-23T04:09:54.881Z,13.00
2019-05-23T04:12:27.009Z,13.00
2019-05-23T04:14:58.922Z,13.00
2019-05-23T04:17:30.789Z,13.00
2019-05-23T04:20:03.442Z,13.00
2019-05-23T04:22:36.066Z,13.00
2019-05-23T04:25:08.854Z,13.00
2019-05-23T04:27:40.967Z,13.00
2019-05-23T04:30:14.549Z,13.00
2019-05-23T04:32:46.741Z,13.00
2019-05-23T04:35:21.116Z,13.00
2019-05-23T04:37:53.447Z,13.00
2019-05-23T04:40:25.838Z,13.00
2019-05-23T04:42:59.069Z,13.00
2019-05-23T04:45:33.394Z,13.00
2019-05-23T04:48:06.775Z,13.00
2019-05-23T04:50:38.869Z,13.00
2019-05-23T04:53:12.294Z,13.10
2019-05-23T04:55:45.916Z,13.10
2019-05-23T04:58:19.338Z,13.20
2019-05-23T05:00:51.437Z,13.20
2019-05-23T05:03:24.912Z,13.30
2019-05-23T05:05:56.784Z,13.30
2019-05-23T05:08:28.694Z,13.30
2019-05-23T05:11:02.165Z,13.40
2019-05-23T05:13:34.928Z,13.40
2019-05-23T05:16:06.702Z,13.50
2019-05-23T05:18:38.834Z,13.60
2019-05-23T05:21:11.098Z,13.60
2019-05-23T05:23:42.759Z,13.60
2019-05-23T05:26:23.188Z,13.60
2019-05-23T05:28:54.853Z,13.70
2019-05-23T05:31:26.673Z,13.70
2019-05-23T05:33:58.602Z,13.80
2019-05-23T05:36:30.851Z,13.80
2019-05-23T05:39:03.265Z,13.90
2019-05-23T05:41:35.498Z,13.90
2019-05-23T05:44:11.342Z,14.00
2019-05-23T05:46:41.388Z,14.10
2019-05-23T05:49:13.730Z,14.20
2019-05-23T05:51:46.845Z,14.20
2019-05-23T05:54:18.807Z,14.30
2019-05-23T05:56:50.606Z,14.40
2019-05-23T05:59:22.347Z,14.40
2019-05-23T06:01:54.438Z,14.50
2019-05-23T06:04:26.385Z,14.60
2019-05-23T06:07:13.012Z,14.70
2019-05-23T06:09:45.033Z,14.80
2019-05-23T06:12:16.811Z,14.80
2019-05-23T06:14:48.594Z,14.90
2019-05-23T06:17:23.043Z,15.00
2019-05-23T06:19:54.999Z,15.10
2019-05-23T06:22:28.337Z,15.20
2019-05-23T06:25:00.088Z,15.20
2019-05-23T06:27:31.900Z,15.30
2019-05-23T06:30:05.776Z,15.50
2019-05-23T06:32:38.497Z,15.50
2019-05-23T06:35:11.085Z,15.60
2019-05-23T06:37:42.933Z,15.70
2019-05-23T06:40:15.291Z,15.80
2019-05-23T06:42:50.627Z,15.80
2019-05-23T06:45:21.793Z,16.00
2019-05-23T06:47:54.713Z,16.10
2019-05-23T06:50:28.011Z,16.20
2019-05-23T06:53:04.388Z,16.30
2019-05-23T06:55:37.550Z,16.40
2019-05-23T06:58:09.822Z,16.40
2019-05-23T07:00:42.494Z,16.50
2019-05-23T07:03:15.122Z,16.60
2019-05-23T07:05:46.961Z,16.70
2019-05-23T07:08:20.324Z,16.80
2019-05-23T07:10:52.102Z,16.90
2019-05-23T07:13:25.488Z,17.00
2019-05-23T07:15:57.186Z,17.10
2019-05-23T07:18:30.516Z,17.20
2019-05-23T07:21:03.487Z,17.30
2019-05-23T07:23:35.742Z,17.40
2019-05-23T07:26:08.755Z,17.50
2019-05-23T07:28:41.247Z,17.60
2019-05-23T07:31:13.121Z,17.80
2019-05-23T07:34:00.935Z,17.80
2019-05-23T07:36:19.879Z,18.00
2019-05-23T07:38:51.741Z,18.10
2019-05-23T07:41:23.594Z,18.20
2019-05-23T07:43:55.804Z,18.30
2019-05-23T07:46:27.716Z,18.40
2019-05-23T07:48:59.649Z,18.50
2019-05-23T07:51:32.667Z,18.60
2019-05-23T07:54:26.606Z,18.60
2019-05-23T07:57:00.324Z,18.70
2019-05-23T07:59:32.731Z,18.80
2019-05-23T08:02:17.251Z,18.90
2019-05-23T08:04:49.973Z,19.00
2019-05-23T08:07:23.648Z,19.10
2019-05-23T08:09:55.566Z,19.20
2019-05-23T08:12:27.541Z,19.30
2019-05-23T08:14:59.490Z,19.30
2019-05-23T08:17:33.390Z,19.40
2019-05-23T08:20:05.907Z,19.50
2019-05-23T08:22:38.308Z,19.60
2019-05-23T08:25:10.409Z,19.70
2019-05-23T08:27:42.743Z,19.80
2019-05-23T08:30:15.551Z,19.90
2019-05-23T08:32:47.379Z,20.00
2019-05-23T08:35:19.384Z,20.10
2019-05-23T08:37:51.184Z,20.20
2019-05-23T08:40:25.358Z,20.30
2019-05-23T08:42:58.973Z,20.40
2019-05-23T08:45:30.691Z,20.50
2019-05-23T08:48:02.724Z,20.60
2019-05-23T08:50:34.584Z,20.70
2019-05-23T08:53:07.310Z,20.70
2019-05-23T08:55:39.849Z,20.90
2019-05-23T08:58:13.679Z,21.00
2019-05-23T09:00:45.939Z,21.00
2019-05-23T09:03:18.823Z,21.10
2019-05-23T09:05:52.490Z,21.20
2019-05-23T09:08:27.047Z,21.30
2019-05-23T09:10:59.606Z,21.40
2019-05-23T09:13:31.823Z,21.50
2019-05-23T09:16:04.257Z,21.60
2019-05-23T09:18:36.189Z,21.70
2019-05-23T09:21:08.001Z,21.80
2019-05-23T09:23:39.938Z,21.70
2019-05-23T09:26:12.823Z,22.00
2019-05-23T09:28:44.876Z,22.10
2019-05-23T09:31:17.558Z,22.30
2019-05-23T09:33:49.682Z,22.40
2019-05-23T09:36:21.586Z,22.50
2019-05-23T09:38:53.521Z,22.60
2019-05-23T09:41:25.425Z,22.80
2019-05-23T09:43:59.966Z,22.90
2019-05-23T09:46:31.951Z,23.00
2019-05-23T09:49:03.919Z,23.10
2019-05-23T09:51:35.646Z,23.20
2019-05-23T09:54:07.616Z,23.40
2019-05-23T09:56:39.545Z,23.50
2019-05-23T09:59:13.048Z,23.60
2019-05-23T10:01:45.134Z,23.80
2019-05-23T10:04:16.851Z,23.90
2019-05-23T10:06:48.629Z,24.10
2019-05-23T10:09:20.642Z,24.20
2019-05-23T10:11:52.807Z,24.40
2019-05-23T10:14:27.954Z,24.60
2019-05-23T10:17:00.370Z,24.80
2019-05-23T10:19:33.075Z,25.00
2019-05-23T10:22:06.703Z,25.30
2019-05-23T10:24:38.973Z,25.50
2019-05-23T10:27:12.690Z,25.90
2019-05-23T10:29:44.528Z,26.20
2019-05-23T10:32:18.028Z,26.50
2019-05-23T10:34:51.606Z,26.90
2019-05-23T10:37:24.743Z,27.20
2019-05-23T10:39:57.164Z,27.60
2019-05-23T10:42:30.088Z,27.90
2019-05-23T10:45:02.638Z,28.30
2019-05-23T10:47:34.973Z,28.50
2019-05-23T10:50:09.774Z,28.80
2019-05-23T10:52:42.863Z,29.00
2019-05-23T10:55:15.472Z,29.20
2019-05-23T10:57:49.214Z,29.40
2019-05-23T11:00:23.380Z,29.60
2019-05-23T11:02:57.012Z,29.90
2019-05-23T11:05:29.527Z,30.20
2019-05-23T11:08:02.803Z,30.50
2019-05-23T11:10:35.461Z,30.70
2019-05-23T11:13:08.055Z,31.00
2019-05-23T11:15:41.017Z,31.10
2019-05-23T11:18:13.571Z,31.30
2019-05-23T11:20:45.972Z,31.40
2019-05-23T11:23:23.617Z,31.40
2019-05-23T11:26:00.209Z,31.40
2019-05-23T11:28:34.579Z,31.50
2019-05-23T11:31:08.561Z,31.60
2019-05-23T11:33:40.891Z,31.70
2019-05-23T11:36:33.608Z,31.80
2019-05-23T11:38:51.005Z,32.00
2019-05-23T11:41:24.135Z,32.20
2019-05-23T11:43:56.506Z,32.20
2019-05-23T11:46:35.421Z,32.30
2019-05-23T11:49:08.513Z,32.50
2019-05-23T11:51:40.810Z,32.60
2019-05-23T11:54:15.364Z,32.70
2019-05-23T11:56:49.109Z,32.80
2019-05-23T11:59:21.538Z,32.90
2019-05-23T12:02:19.535Z,33.00
2019-05-23T12:04:54.202Z,33.00
2019-05-23T12:07:30.876Z,33.00
2019-05-23T12:10:03.600Z,32.90
2019-05-23T12:12:36.154Z,32.70
2019-05-23T12:15:16.013Z,32.60
2019-05-23T12:17:50.033Z,32.60
2019-05-23T12:20:23.995Z,32.50
2019-05-23T12:22:56.545Z,32.50
2019-05-23T12:25:30.464Z,32.50
2019-05-23T12:28:05.844Z,32.50
2019-05-23T12:30:38.301Z,32.50
2019-05-23T12:33:10.911Z,32.50
2019-05-23T12:35:44.578Z,32.30
2019-05-23T12:38:17.008Z,32.30
2019-05-23T12:40:49.539Z,32.20
2019-05-23T12:43:22.131Z,32.20
2019-05-23T12:45:54.845Z,32.20
2019-05-23T12:48:35.507Z,32.30
2019-05-23T12:51:08.459Z,32.40
2019-05-23T12:53:42.665Z,32.50
2019-05-23T12:56:15.880Z,32.60
2019-05-23T12:58:48.541Z,32.60
2019-05-23T13:01:21.633Z,32.50
2019-05-23T13:03:54.233Z,32.50
2019-05-23T13:06:26.884Z,32.40
2019-05-23T13:08:59.324Z,32.30
2019-05-23T13:11:31.707Z,32.20
2019-05-23T13:14:04.356Z,32.20
2019-05-23T13:16:37.140Z,32.30
2019-05-23T13:19:10.051Z,32.40
2019-05-23T13:21:42.627Z,32.40
2019-05-23T13:24:14.961Z,32.40
2019-05-23T13:26:47.412Z,32.40
2019-05-23T13:29:23.584Z,32.30
2019-05-23T13:31:54.895Z,32.10
2019-05-23T13:34:28.375Z,31.80
2019-05-23T13:37:01.817Z,31.60
2019-05-23T13:39:37.527Z,31.50
2019-05-23T13:42:11.139Z,31.20
2019-05-23T13:44:43.479Z,31.00
2019-05-23T13:47:15.861Z,30.70
2019-05-23T13:49:48.143Z,30.40
2019-05-23T13:52:20.889Z,30.20
2019-05-23T13:54:53.267Z,30.00
2019-05-23T13:57:25.745Z,29.80
2019-05-23T13:59:57.529Z,29.60
2019-05-23T14:02:33.340Z,29.40
2019-05-23T14:05:08.552Z,29.30
2019-05-23T14:07:41.826Z,29.20
2019-05-23T14:10:14.523Z,29.10
2019-05-23T14:12:47.547Z,28.90
2019-05-23T14:15:22.597Z,28.80
2019-05-23T14:17:56.551Z,28.70
2019-05-23T14:20:28.335Z,28.60
2019-05-23T14:23:05.554Z,28.50
2019-05-23T14:25:38.037Z,28.40
2019-05-23T14:28:09.766Z,28.30
2019-05-23T14:30:55.698Z,28.20
2019-05-23T14:33:38.193Z,28.10
2019-05-23T14:36:17.376Z,28.00
2019-05-23T14:38:50.152Z,28.00
2019-05-23T14:41:22.088Z,28.00
2019-05-23T14:43:54.221Z,27.90
2019-05-23T14:46:29.290Z,27.80
2019-05-23T14:49:17.207Z,27.70
2019-05-23T14:52:08.443Z,27.70
2019-05-23T14:54:43.302Z,27.60
2019-05-23T14:57:16.236Z,27.50
2019-05-23T14:59:48.730Z,27.50
2019-05-23T15:02:21.673Z,27.40
2019-05-23T15:04:54.590Z,27.40
2019-05-23T15:07:26.913Z,27.30
2019-05-23T15:09:59.352Z,27.20
2019-05-23T15:12:31.743Z,27.10
2019-05-23T15:15:04.957Z,27.10
2019-05-23T15:17:38.481Z,27.10
2019-05-23T15:20:10.939Z,27.20
2019-05-23T15:22:43.552Z,27.20
2019-05-23T15:25:15.609Z,27.20
2019-05-23T15:27:48.423Z,27.20
2019-05-23T15:30:20.966Z,27.20
2019-05-23T15:32:53.272Z,27.20
2019-05-23T15:35:27.989Z,27.20
2019-05-23T15:38:00.403Z,27.20
2019-05-23T15:40:33.184Z,27.20
2019-05-23T15:43:05.115Z,27.20
2019-05-23T15:45:37.518Z,27.20
2019-05-23T15:48:09.336Z,27.20
2019-05-23T15:50:48.862Z,27.20
2019-05-23T15:53:37.554Z,27.20
2019-05-23T15:56:27.602Z,27.10
2019-05-23T15:59:15.536Z,27.10
2019-05-23T16:02:18.470Z,27.00
2019-05-23T16:04:52.949Z,27.00
2019-05-23T16:07:25.908Z,26.90
2019-05-23T16:09:57.725Z,26.90
2019-05-23T16:12:32.008Z,26.90
2019-05-23T16:15:06.048Z,26.90
2019-05-23T16:17:39.105Z,26.90
2019-05-23T16:20:13.756Z,26.90
2019-05-23T16:22:49.335Z,26.90
2019-05-23T16:25:27.682Z,26.80
2019-05-23T16:27:56.693Z,26.80
2019-05-23T16:30:29.075Z,26.80
2019-05-23T16:33:05.741Z,26.70
2019-05-23T16:35:46.318Z,26.70
2019-05-23T16:38:18.206Z,26.70
2019-05-23T16:40:50.720Z,26.60
2019-05-23T16:43:24.830Z,26.50
2019-05-23T16:45:59.418Z,26.50
2019-05-23T16:48:35.004Z,26.40
2019-05-23T16:51:06.785Z,26.40
2019-05-23T16:53:39.303Z,26.30
2019-05-23T16:56:42.069Z,26.30
2019-05-23T16:59:25.796Z,26.20
2019-05-23T17:02:24.761Z,26.20
2019-05-23T17:05:10.716Z,26.20
2019-05-23T17:08:03.848Z,26.10
2019-05-23T17:10:53.420Z,26.10
2019-05-23T17:13:45.151Z,26.00
2019-05-23T17:16:30.402Z,26.00
2019-05-23T17:19:12.099Z,26.00
2019-05-23T17:21:59.118Z,25.90
2019-05-23T17:24:55.696Z,25.90
2019-05-23T17:27:51.727Z,25.80
2019-05-23T17:30:43.165Z,25.90
2019-05-23T17:33:16.442Z,25.80
2019-05-23T17:35:48.624Z,25.80
2019-05-23T17:38:21.112Z,25.80
2019-05-23T17:40:53.211Z,25.70
2019-05-23T17:43:26.040Z,25.70
2019-05-23T17:45:57.961Z,25.60
2019-05-23T17:48:31.161Z,25.60
2019-05-23T17:51:03.195Z,25.50
2019-05-23T17:53:35.008Z,25.50
2019-05-23T17:56:06.954Z,25.40
2019-05-23T17:58:39.191Z,25.40
2019-05-23T18:01:11.123Z,25.30
2019-05-23T18:03:43.112Z,25.20
2019-05-23T18:06:15.201Z,25.10
2019-05-23T18:08:48.343Z,25.00
2019-05-23T18:11:20.893Z,24.90
2019-05-23T18:13:52.911Z,24.80
2019-05-23T18:16:24.838Z,24.80
2019-05-23T18:18:56.748Z,24.70
2019-05-23T18:21:28.832Z,24.70
2019-05-23T18:24:00.815Z,24.60
2019-05-23T18:26:32.815Z,24.50
2019-05-23T18:29:05.073Z,24.50
2019-05-23T18:31:39.063Z,24.40
2019-05-23T18:34:12.678Z,24.40
2019-05-23T18:36:45.051Z,24.30
2019-05-23T18:39:19.128Z,24.20
2019-05-23T18:41:51.694Z,24.20
2019-05-23T18:44:23.591Z,24.10
2019-05-23T18:46:57.216Z,24.10
2019-05-23T18:49:29.954Z,24.00
2019-05-23T18:52:01.721Z,24.00
2019-05-23T18:54:33.795Z,23.90
2019-05-23T18:57:05.638Z,23.80
2019-05-23T18:59:37.381Z,23.80
2019-05-23T19:02:10.403Z,23.70
2019-05-23T19:04:42.150Z,23.60
2019-05-23T19:07:14.246Z,23.60
2019-05-23T19:09:48.065Z,23.50
2019-05-23T19:12:20.382Z,23.40
2019-05-23T19:14:52.657Z,23.30
2019-05-23T19:17:25.516Z,23.20
2019-05-23T19:19:57.728Z,23.20
2019-05-23T19:22:29.893Z,23.10
2019-05-23T19:25:02.226Z,23.00
2019-05-23T19:27:35.406Z,23.00
2019-05-23T19:30:09.208Z,22.90
2019-05-23T19:32:41.141Z,22.80
2019-05-23T19:35:15.232Z,22.80
2019-05-23T19:37:47.022Z,22.70
2019-05-23T19:40:19.474Z,22.60
2019-05-23T19:42:52.859Z,22.50
2019-05-23T19:45:25.710Z,22.50
2019-05-23T19:48:00.429Z,22.40
2019-05-23T19:50:37.393Z,22.30
2019-05-23T19:53:09.361Z,22.20
2019-05-23T19:55:41.175Z,22.20
2019-05-23T19:58:19.160Z,22.10
2019-05-23T20:00:55.805Z,22.00
2019-05-23T20:03:32.947Z,21.90
2019-05-23T20:06:07.149Z,21.90
2019-05-23T20:08:42.625Z,21.80
2019-05-23T20:11:17.365Z,21.70
2019-05-23T20:13:50.505Z,21.70
2019-05-23T20:16:23.393Z,21.60
2019-05-23T20:18:58.981Z,21.50
2019-05-23T20:21:33.841Z,21.40
2019-05-23T20:24:07.639Z,21.40
2019-05-23T20:26:42.498Z,21.30
2019-05-23T20:29:19.362Z,21.30
2019-05-23T20:31:53.469Z,21.20
2019-05-23T20:34:28.541Z,21.20
2019-05-23T20:37:02.258Z,21.20
2019-05-23T20:39:35.258Z,21.10
2019-05-23T20:42:11.295Z,21.10
2019-05-23T20:44:41.144Z,21.10
2019-05-23T20:47:16.351Z,21.00
2019-05-23T20:49:51.677Z,21.00
2019-05-23T20:52:23.644Z,21.00
2019-05-23T20:54:55.702Z,21.00
2019-05-23T20:57:27.447Z,21.00
2019-05-23T21:00:00.748Z,20.90
2019-05-23T21:02:34.293Z,20.90
2019-05-23T21:05:06.657Z,20.90
2019-05-23T21:07:41.400Z,20.80
2019-05-23T21:10:18.204Z,20.80
2019-05-23T21:12:50.138Z,20.70
2019-05-23T21:15:22.163Z,20.60
2019-05-23T21:17:53.938Z,20.60
2019-05-23T21:20:27.197Z,20.50
2019-05-23T21:23:00.472Z,20.50
2019-05-23T21:25:33.095Z,20.40
2019-05-23T21:28:05.300Z,20.40
2019-05-23T21:30:38.910Z,20.30
2019-05-23T21:33:12.310Z,20.20
2019-05-23T21:35:54.198Z,20.10
2019-05-23T21:38:26.406Z,20.00
2019-05-23T21:40:58.239Z,20.00
2019-05-23T21:43:30.282Z,19.90
2019-05-23T21:46:02.195Z,19.80
2019-05-23T21:48:34.236Z,19.70
2019-05-23T21:51:07.106Z,19.60
2019-05-23T21:53:39.104Z,19.60
2019-05-23T21:56:11.198Z,19.50
2019-05-23T21:58:42.985Z,19.40
2019-05-23T22:01:37.467Z,19.30
2019-05-23T22:04:27.507Z,19.30
2019-05-23T22:07:01.987Z,19.20
2019-05-23T22:09:35.533Z,19.10
2019-05-23T22:12:10.228Z,19.00
2019-05-23T22:14:42.715Z,19.00
2019-05-23T22:17:14.833Z,18.90
2019-05-23T22:19:46.504Z,18.80
2019-05-23T22:22:18.254Z,18.70
2019-05-23T22:24:50.220Z,18.70
2019-05-23T22:27:22.212Z,18.70
2019-05-23T22:29:54.349Z,18.60
2019-05-23T22:32:27.731Z,18.60
2019-05-23T22:35:06.259Z,18.50
2019-05-23T22:37:37.988Z,18.50
2019-05-23T22:40:10.074Z,18.40
2019-05-23T22:42:42.504Z,18.30
2019-05-23T22:45:18.131Z,18.30
2019-05-23T22:47:50.004Z,18.20
2019-05-23T22:50:22.164Z,18.10
2019-05-23T22:52:55.360Z,18.10
2019-05-23T22:55:27.322Z,18.00
2019-05-23T22:57:59.172Z,17.90
2019-05-23T23:00:34.193Z,17.90
2019-05-23T23:03:05.955Z,17.90
2019-05-23T23:05:37.661Z,17.80
2019-05-23T23:08:09.633Z,17.70
2019-05-23T23:10:42.046Z,17.70
2019-05-23T23:13:14.346Z,17.70
2019-05-23T23:15:46.184Z,17.70
2019-05-23T23:18:19.798Z,17.60
2019-05-23T23:20:51.940Z,17.70
2019-05-23T23:23:24.881Z,17.60
2019-05-23T23:25:56.571Z,17.60
2019-05-23T23:28:28.422Z,17.60
2019-05-23T23:31:00.308Z,17.60
2019-05-23T23:33:33.352Z,17.60
2019-05-23T23:36:05.043Z,17.50
2019-05-23T23:38:36.863Z,17.40
2019-05-23T23:41:10.070Z,17.40
2019-05-23T23:43:57.870Z,17.40
2019-05-23T23:46:34.650Z,17.30
2019-05-23T23:49:24.439Z,17.20
2019-05-23T23:52:13.845Z,17.10
2019-05-23T23:55:13.126Z,17.00
2019-05-23T23:57:58.888Z,16.90
